createdAt,value
2023-05-05T00:00:23.086Z,15.67
2023-05-05T00:03:46.082Z,15.71
2023-05-05T00:06:49.000Z,15.65
2023-05-05T00:09:51.537Z,15.61
2023-05-05T00:12:54.211Z,15.60
2023-05-05T00:15:56.957Z,15.58
2023-05-05T00:18:59.838Z,15.60
2023-05-05T00:22:02.428Z,15.51
2023-05-05T00:25:05.205Z,15.47
2023-05-05T00:28:08.009Z,15.46
2023-05-05T00:31:11.825Z,15.45
2023-05-05T00:34:14.535Z,15.38
2023-05-05T00:37:17.381Z,15.34
2023-05-05T00:40:19.952Z,15.34
2023-05-05T00:43:22.473Z,15.31
2023-05-05T00:46:29.451Z,15.30
2023-05-05T00:49:33.330Z,15.33
2023-05-05T00:52:36.956Z,15.25
2023-05-05T00:55:39.541Z,15.23
2023-05-05T00:58:42.870Z,15.21
2023-05-05T01:01:46.588Z,15.18
2023-05-05T01:04:49.325Z,15.19
2023-05-05T01:08:10.748Z,15.20
2023-05-05T01:11:23.743Z,15.19
2023-05-05T01:14:37.091Z,15.23
2023-05-05T01:17:42.451Z,15.26
2023-05-05T01:20:49.524Z,15.24
2023-05-05T01:23:52.360Z,15.17
2023-05-05T01:27:13.667Z,15.14
2023-05-05T01:30:34.788Z,15.13
2023-05-05T01:33:48.854Z,15.16
2023-05-05T01:37:17.874Z,15.13
2023-05-05T01:40:25.269Z,15.13
2023-05-05T01:43:29.606Z,15.12
2023-05-05T01:46:34.212Z,15.10
2023-05-05T01:49:37.305Z,15.10
2023-05-05T01:52:41.334Z,15.06
2023-05-05T01:55:44.526Z,15.04
2023-05-05T01:58:48.188Z,15.00
2023-05-05T02:01:50.972Z,15.00
2023-05-05T02:04:54.666Z,14.99
2023-05-05T02:07:59.040Z,14.97
2023-05-05T02:11:02.032Z,14.95
2023-05-05T02:14:05.525Z,14.93
2023-05-05T02:17:08.961Z,14.91
2023-05-05T02:20:12.850Z,14.88
2023-05-05T02:23:15.955Z,14.88
2023-05-05T02:26:20.123Z,14.84
2023-05-05T02:29:27.668Z,14.81
2023-05-05T02:32:50.616Z,14.81
2023-05-05T02:35:54.212Z,14.79
2023-05-05T02:38:59.280Z,14.74
2023-05-05T02:42:03.929Z,14.71
2023-05-05T02:45:15.107Z,14.69
2023-05-05T02:48:18.354Z,14.68
2023-05-05T02:51:20.727Z,14.67
2023-05-05T02:54:24.548Z,14.64
2023-05-05T02:57:39.014Z,14.62
2023-05-05T03:00:47.453Z,14.62
2023-05-05T03:04:00.414Z,14.60
2023-05-05T03:07:07.042Z,14.61
2023-05-05T03:10:12.145Z,14.61
2023-05-05T03:13:17.921Z,14.60
2023-05-05T03:16:23.184Z,14.60
2023-05-05T03:19:26.974Z,14.59
2023-05-05T03:22:29.719Z,14.58
2023-05-05T03:25:42.642Z,14.49
2023-05-05T03:28:45.409Z,14.40
2023-05-05T03:31:49.222Z,14.31
2023-05-05T03:34:51.767Z,14.26
2023-05-05T03:38:00.940Z,14.32
2023-05-05T03:41:03.711Z,14.36
2023-05-05T03:44:07.506Z,14.39
2023-05-05T03:47:10.887Z,14.38
2023-05-05T03:50:14.206Z,14.26
2023-05-05T03:53:16.792Z,14.24
2023-05-05T03:56:19.987Z,14.29
2023-05-05T03:59:22.336Z,14.36
2023-05-05T04:02:25.503Z,14.30
2023-05-05T04:05:29.103Z,14.33
2023-05-05T04:08:31.766Z,14.32
2023-05-05T04:11:34.528Z,14.29
2023-05-05T04:14:37.636Z,14.34
2023-05-05T04:17:40.623Z,14.35
2023-05-05T04:20:43.955Z,14.40
2023-05-05T04:23:46.746Z,14.45
2023-05-05T04:26:49.604Z,14.46
2023-05-05T04:29:52.380Z,14.46
2023-05-05T04:32:55.267Z,14.45
2023-05-05T04:35:58.468Z,14.48
2023-05-05T04:39:01.544Z,14.54
2023-05-05T04:42:04.703Z,14.55
2023-05-05T04:45:08.553Z,14.58
2023-05-05T04:48:11.690Z,14.57
2023-05-05T04:51:14.454Z,14.51
2023-05-05T04:54:17.095Z,14.46
2023-05-05T04:57:19.652Z,14.41
2023-05-05T05:00:22.330Z,14.45
2023-05-05T05:03:25.009Z,14.48
2023-05-05T05:06:29.385Z,14.53
2023-05-05T05:09:32.647Z,14.51
2023-05-05T05:12:35.497Z,14.51
2023-05-05T05:15:41.128Z,14.63
2023-05-05T05:18:43.706Z,14.57
2023-05-05T05:21:46.404Z,14.66
2023-05-05T05:24:49.278Z,14.79
2023-05-05T05:28:02.270Z,14.69
2023-05-05T05:31:12.417Z,14.68
2023-05-05T05:34:15.169Z,14.64
2023-05-05T05:37:18.315Z,14.67
2023-05-05T05:40:21.349Z,14.85
2023-05-05T05:43:23.930Z,14.80
2023-05-05T05:46:26.558Z,14.95
2023-05-05T05:49:29.233Z,14.96
2023-05-05T05:52:32.118Z,15.09
2023-05-05T05:55:35.931Z,15.04
2023-05-05T05:58:39.091Z,15.31
2023-05-05T06:01:42.862Z,15.48
2023-05-05T06:04:45.849Z,15.47
2023-05-05T06:07:48.233Z,15.43
2023-05-05T06:10:51.714Z,15.44
2023-05-05T06:13:54.155Z,15.48
2023-05-05T06:16:57.173Z,15.57
2023-05-05T06:20:00.509Z,15.82
2023-05-05T06:23:03.628Z,15.81
2023-05-05T06:26:06.477Z,15.93
2023-05-05T06:29:11.758Z,16.06
2023-05-05T06:32:14.562Z,16.14
2023-05-05T06:35:17.622Z,16.27
2023-05-05T06:38:20.035Z,16.40
2023-05-05T06:41:22.916Z,16.57
2023-05-05T06:44:25.543Z,16.87
2023-05-05T06:47:28.151Z,16.81
2023-05-05T06:50:30.901Z,16.85
2023-05-05T06:53:33.988Z,16.95
2023-05-05T06:56:36.562Z,17.10
2023-05-05T06:59:39.420Z,17.35
2023-05-05T07:02:42.131Z,17.53
2023-05-05T07:05:44.714Z,17.72
2023-05-05T07:08:47.366Z,17.91
2023-05-05T07:11:49.992Z,18.15
2023-05-05T07:14:52.608Z,18.33
2023-05-05T07:17:55.259Z,18.62
2023-05-05T07:20:57.941Z,18.71
2023-05-05T07:24:01.233Z,18.96
2023-05-05T07:27:03.874Z,19.13
2023-05-05T07:30:11.215Z,19.28
2023-05-05T07:33:15.960Z,19.44
2023-05-05T07:36:18.663Z,19.48
2023-05-05T07:39:21.409Z,19.73
2023-05-05T07:42:23.995Z,19.86
2023-05-05T07:45:26.976Z,20.08
2023-05-05T07:48:30.299Z,20.30
2023-05-05T07:51:34.573Z,20.53
2023-05-05T07:54:37.648Z,20.68
2023-05-05T07:57:40.313Z,20.81
2023-05-05T08:00:43.930Z,21.04
2023-05-05T08:03:46.901Z,21.20
2023-05-05T08:06:49.225Z,21.50
2023-05-05T08:09:52.194Z,21.82
2023-05-05T08:12:55.062Z,21.92
2023-05-05T08:15:58.087Z,22.26
2023-05-05T08:19:00.490Z,22.76
2023-05-05T08:22:03.409Z,23.33
2023-05-05T08:25:06.363Z,23.78
2023-05-05T08:28:09.495Z,23.47
2023-05-05T08:31:12.287Z,23.81
2023-05-05T08:34:15.141Z,24.27
2023-05-05T08:37:18.934Z,24.95
2023-05-05T08:40:25.058Z,25.56
2023-05-05T08:43:27.533Z,24.92
2023-05-05T08:46:31.222Z,24.78
2023-05-05T08:49:40.398Z,24.88
2023-05-05T08:52:45.528Z,25.09
2023-05-05T08:55:51.759Z,25.54
2023-05-05T08:58:56.491Z,26.04
2023-05-05T09:01:59.245Z,26.39
2023-05-05T09:05:05.357Z,26.58
2023-05-05T09:08:10.564Z,26.77
2023-05-05T09:11:13.503Z,27.12
2023-05-05T09:14:16.046Z,27.96
2023-05-05T09:17:22.376Z,28.54
2023-05-05T09:20:24.936Z,28.66
2023-05-05T09:23:27.780Z,29.17
2023-05-05T09:26:32.817Z,29.73
2023-05-05T09:29:35.745Z,30.19
2023-05-05T09:32:49.079Z,30.64
2023-05-05T09:35:53.512Z,30.03
2023-05-05T09:39:06.472Z,29.86
2023-05-05T09:42:17.672Z,30.16
2023-05-05T09:45:20.084Z,29.67
2023-05-05T09:48:30.163Z,29.89
2023-05-05T09:51:32.465Z,30.03
2023-05-05T09:54:35.470Z,30.52
2023-05-05T09:57:37.749Z,30.17
2023-05-05T10:00:40.663Z,29.74
2023-05-05T10:03:50.165Z,30.21
2023-05-05T10:06:52.924Z,30.81
2023-05-05T10:09:56.555Z,31.11
2023-05-05T10:12:59.441Z,30.93
2023-05-05T10:16:03.424Z,31.18
2023-05-05T10:19:06.725Z,31.41
2023-05-05T10:22:10.415Z,31.07
2023-05-05T10:25:14.312Z,31.24
2023-05-05T10:28:22.165Z,31.77
2023-05-05T10:31:28.455Z,32.17
2023-05-05T10:34:38.251Z,32.16
2023-05-05T10:37:41.513Z,31.82
2023-05-05T10:40:48.806Z,31.89
2023-05-05T10:43:52.931Z,31.68
2023-05-05T10:46:55.758Z,30.91
2023-05-05T10:50:04.336Z,29.89
2023-05-05T10:53:18.218Z,28.89
2023-05-05T10:56:30.247Z,28.76
2023-05-05T10:59:39.041Z,28.68
2023-05-05T11:02:42.050Z,28.95
2023-05-05T11:06:03.562Z,28.80
2023-05-05T11:09:24.732Z,28.37
2023-05-05T11:12:31.166Z,28.76
2023-05-05T11:15:37.662Z,29.51
2023-05-05T11:18:43.266Z,29.75
2023-05-05T11:22:04.454Z,29.76
2023-05-05T11:25:25.670Z,29.22
2023-05-05T11:28:32.533Z,29.49
2023-05-05T11:31:35.198Z,29.58
2023-05-05T11:34:47.886Z,30.04
2023-05-05T11:38:03.352Z,30.08
2023-05-05T11:41:12.405Z,29.87
2023-05-05T11:44:18.825Z,30.07
2023-05-05T11:47:21.397Z,29.90
2023-05-05T11:50:24.640Z,30.05
2023-05-05T11:53:27.488Z,29.98
2023-05-05T11:56:30.132Z,30.03
2023-05-05T11:59:33.572Z,29.74
2023-05-05T12:02:36.371Z,29.73
2023-05-05T12:05:39.544Z,29.83
2023-05-05T12:08:41.884Z,30.15
2023-05-05T12:11:48.282Z,29.62
2023-05-05T12:14:52.456Z,29.17
2023-05-05T12:17:55.459Z,29.25
2023-05-05T12:20:58.180Z,29.26
2023-05-05T12:24:01.174Z,29.38
2023-05-05T12:27:13.554Z,29.33
2023-05-05T12:30:17.574Z,29.21
2023-05-05T12:33:20.605Z,29.28
2023-05-05T12:36:23.452Z,29.13
2023-05-05T12:39:36.336Z,28.93
2023-05-05T12:42:39.982Z,29.01
2023-05-05T12:45:42.625Z,28.93
2023-05-05T12:48:48.121Z,28.82
2023-05-05T12:51:54.657Z,28.63
2023-05-05T12:54:58.826Z,28.59
2023-05-05T12:58:02.132Z,27.95
2023-05-05T13:01:08.179Z,27.52
2023-05-05T13:04:13.658Z,27.14
2023-05-05T13:07:17.907Z,27.18
2023-05-05T13:10:20.491Z,27.48
2023-05-05T13:13:23.469Z,27.74
2023-05-05T13:16:25.759Z,28.21
2023-05-05T13:19:28.921Z,28.09
2023-05-05T13:22:31.264Z,27.13
2023-05-05T13:25:34.081Z,26.93
2023-05-05T13:28:36.395Z,26.51
2023-05-05T13:31:39.371Z,26.16
2023-05-05T13:34:43.581Z,26.08
2023-05-05T13:37:47.823Z,25.91
2023-05-05T13:40:50.154Z,25.95
2023-05-05T13:43:53.147Z,25.86
2023-05-05T13:46:55.489Z,25.78
2023-05-05T13:49:58.417Z,25.98
2023-05-05T13:53:00.761Z,25.82
2023-05-05T13:56:04.008Z,25.61
2023-05-05T13:59:06.398Z,25.59
2023-05-05T14:02:09.399Z,25.50
2023-05-05T14:05:12.071Z,23.64
2023-05-05T14:08:14.994Z,22.48
2023-05-05T14:11:18.208Z,22.00
2023-05-05T14:14:20.864Z,21.97
2023-05-05T14:17:23.614Z,22.43
2023-05-05T14:20:26.953Z,22.70
2023-05-05T14:23:29.822Z,22.80
2023-05-05T14:26:32.432Z,22.87
2023-05-05T14:29:35.008Z,23.17
2023-05-05T14:32:37.580Z,23.45
2023-05-05T14:35:40.312Z,23.50
2023-05-05T14:38:43.080Z,23.58
2023-05-05T14:41:46.678Z,23.77
2023-05-05T14:44:49.276Z,23.69
2023-05-05T14:47:51.902Z,23.58
2023-05-05T14:50:54.565Z,23.52
2023-05-05T14:53:57.182Z,23.89
2023-05-05T14:56:59.885Z,23.76
2023-05-05T15:00:02.608Z,23.98
2023-05-05T15:03:05.602Z,23.82
2023-05-05T15:06:09.359Z,23.94
2023-05-05T15:09:13.092Z,23.71
2023-05-05T15:12:15.777Z,23.43
2023-05-05T15:15:18.370Z,23.31
2023-05-05T15:18:20.949Z,23.62
2023-05-05T15:21:23.689Z,23.59
2023-05-05T15:24:26.369Z,23.48
2023-05-05T15:27:30.053Z,23.59
2023-05-05T15:30:32.704Z,23.52
2023-05-05T15:33:36.083Z,23.34
2023-05-05T15:36:38.818Z,23.58
2023-05-05T15:39:41.407Z,23.61
2023-05-05T15:42:44.017Z,23.61
2023-05-05T15:45:46.648Z,23.57
2023-05-05T15:48:49.761Z,23.56
2023-05-05T15:51:53.037Z,23.51
2023-05-05T15:54:55.745Z,23.37
2023-05-05T15:57:58.408Z,23.11
2023-05-05T16:01:01.116Z,23.03
2023-05-05T16:04:04.216Z,22.87
2023-05-05T16:07:06.544Z,23.03
2023-05-05T16:10:10.080Z,22.91
2023-05-05T16:13:12.609Z,23.17
2023-05-05T16:16:15.546Z,23.00
2023-05-05T16:19:18.153Z,22.95
2023-05-05T16:22:21.100Z,22.82
2023-05-05T16:25:23.524Z,22.72
2023-05-05T16:28:26.378Z,22.63
2023-05-05T16:31:28.657Z,22.96
2023-05-05T16:34:31.523Z,22.83
2023-05-05T16:37:33.786Z,22.75
2023-05-05T16:40:37.726Z,22.85
2023-05-05T16:43:40.103Z,22.58
2023-05-05T16:46:43.162Z,22.43
2023-05-05T16:49:45.470Z,22.35
2023-05-05T16:52:48.503Z,22.25
2023-05-05T16:55:52.021Z,22.25
2023-05-05T16:58:54.885Z,22.17
2023-05-05T17:01:57.831Z,22.17
2023-05-05T17:05:00.783Z,22.11
2023-05-05T17:08:03.933Z,22.04
2023-05-05T17:11:06.905Z,22.02
2023-05-05T17:14:09.279Z,21.93
2023-05-05T17:17:13.143Z,21.90
2023-05-05T17:20:15.597Z,21.86
2023-05-05T17:23:21.097Z,21.80
2023-05-05T17:26:24.357Z,21.85
2023-05-05T17:29:27.225Z,21.86
2023-05-05T17:32:29.624Z,21.76
2023-05-05T17:35:32.721Z,21.82
2023-05-05T17:38:35.069Z,21.63
2023-05-05T17:41:37.965Z,21.52
2023-05-05T17:44:40.283Z,21.44
2023-05-05T17:47:43.429Z,21.37
2023-05-05T17:50:46.932Z,21.32
2023-05-05T17:53:49.763Z,21.27
2023-05-05T17:56:52.485Z,21.25
2023-05-05T17:59:55.630Z,21.20
2023-05-05T18:02:58.115Z,21.15
2023-05-05T18:06:02.352Z,21.08
2023-05-05T18:09:04.684Z,21.04
2023-05-05T18:12:07.836Z,21.05
2023-05-05T18:15:10.586Z,21.00
2023-05-05T18:18:13.831Z,20.91
2023-05-05T18:21:16.210Z,20.90
2023-05-05T18:24:20.490Z,20.86
2023-05-05T18:27:23.360Z,20.85
2023-05-05T18:30:28.521Z,20.79
2023-05-05T18:33:30.916Z,20.74
2023-05-05T18:36:33.931Z,20.70
2023-05-05T18:39:36.223Z,20.63
2023-05-05T18:42:39.191Z,20.71
2023-05-05T18:45:41.991Z,20.91
2023-05-05T18:48:45.411Z,20.97
2023-05-05T18:51:47.704Z,20.78
2023-05-05T18:54:50.562Z,20.80
2023-05-05T18:57:53.383Z,20.83
2023-05-05T19:00:57.262Z,20.77
2023-05-05T19:03:59.709Z,20.70
2023-05-05T19:07:02.658Z,20.61
2023-05-05T19:10:05.164Z,20.45
2023-05-05T19:13:09.262Z,20.18
2023-05-05T19:16:12.135Z,20.18
2023-05-05T19:19:15.082Z,20.12
2023-05-05T19:22:17.762Z,20.15
2023-05-05T19:25:20.661Z,20.21
2023-05-05T19:28:22.999Z,20.05
2023-05-05T19:31:27.822Z,19.87
2023-05-05T19:34:30.317Z,19.76
2023-05-05T19:37:33.341Z,19.65
2023-05-05T19:40:36.287Z,19.60
2023-05-05T19:43:39.445Z,19.55
2023-05-05T19:46:41.785Z,19.57
2023-05-05T19:49:44.647Z,19.49
2023-05-05T19:52:47.014Z,19.46
2023-05-05T19:55:49.853Z,19.41
2023-05-05T19:58:59.257Z,19.37
2023-05-05T20:02:02.348Z,19.32
2023-05-05T20:05:05.615Z,19.27
2023-05-05T20:08:07.970Z,19.25
2023-05-05T20:11:11.281Z,19.22
2023-05-05T20:14:13.588Z,19.20
2023-05-05T20:17:20.096Z,19.16
2023-05-05T20:20:22.913Z,19.11
2023-05-05T20:23:26.369Z,19.07
2023-05-05T20:26:28.787Z,19.04
2023-05-05T20:29:32.007Z,19.01
2023-05-05T20:32:34.466Z,18.98
2023-05-05T20:35:37.731Z,18.95
2023-05-05T20:38:40.101Z,18.91
2023-05-05T20:41:43.149Z,18.86
2023-05-05T20:44:45.533Z,18.84
2023-05-05T20:47:48.443Z,18.80
2023-05-05T20:50:51.565Z,18.78
2023-05-05T20:53:54.416Z,18.76
2023-05-05T20:56:58.162Z,18.72
2023-05-05T21:00:01.052Z,18.68
2023-05-05T21:03:04.383Z,18.65
2023-05-05T21:06:07.410Z,18.62
2023-05-05T21:09:09.716Z,18.59
2023-05-05T21:12:12.610Z,18.55
2023-05-05T21:15:16.543Z,18.54
2023-05-05T21:18:19.469Z,18.49
2023-05-05T21:21:23.879Z,18.48
2023-05-05T21:24:28.093Z,18.44
2023-05-05T21:27:30.559Z,18.42
2023-05-05T21:30:33.510Z,18.38
2023-05-05T21:33:35.918Z,18.35
2023-05-05T21:36:38.862Z,18.28
2023-05-05T21:39:41.737Z,18.24
2023-05-05T21:42:44.723Z,18.22
2023-05-05T21:45:47.133Z,18.18
2023-05-05T21:48:50.126Z,18.14
2023-05-05T21:51:52.454Z,18.09
2023-05-05T21:54:55.482Z,18.05
2023-05-05T21:57:57.819Z,18.02
2023-05-05T22:01:01.291Z,17.99
2023-05-05T22:04:04.112Z,17.98
2023-05-05T22:07:07.012Z,17.93
2023-05-05T22:10:10.137Z,17.90
2023-05-05T22:13:13.976Z,17.87
2023-05-05T22:16:19.518Z,17.83
2023-05-05T22:19:22.412Z,17.80
2023-05-05T22:22:25.650Z,17.76
2023-05-05T22:25:28.319Z,17.73
2023-05-05T22:28:31.065Z,17.69
2023-05-05T22:31:33.731Z,17.66
2023-05-05T22:34:36.578Z,17.58
2023-05-05T22:37:39.323Z,17.58
2023-05-05T22:40:41.987Z,17.60
2023-05-05T22:43:44.712Z,17.51
2023-05-05T22:46:47.305Z,17.48
2023-05-05T22:49:50.129Z,17.47
2023-05-05T22:52:52.796Z,17.37
2023-05-05T22:55:55.339Z,17.32
2023-05-05T22:58:58.441Z,17.29
2023-05-05T23:02:01.947Z,17.29
2023-05-05T23:05:04.718Z,17.22
2023-05-05T23:08:07.482Z,17.17
2023-05-05T23:11:10.107Z,17.17
2023-05-05T23:14:12.756Z,17.13
2023-05-05T23:17:15.545Z,17.09
2023-05-05T23:20:18.187Z,17.10
2023-05-05T23:23:20.958Z,17.08
2023-05-05T23:26:23.693Z,17.03
2023-05-05T23:29:26.647Z,17.02
2023-05-05T23:32:29.637Z,17.02
2023-05-05T23:35:32.548Z,16.99
2023-05-05T23:38:35.164Z,16.89
2023-05-05T23:41:37.769Z,16.83
2023-05-05T23:44:41.351Z,16.78
2023-05-05T23:47:44.128Z,16.74
2023-05-05T23:50:46.769Z,16.67
2023-05-05T23:53:49.478Z,16.57
2023-05-05T23:56:52.098Z,16.49
2023-05-05T23:59:54.676Z,16.46
